Time;durP1;ratioP1;P1;durP2;ratioP2;P2;SDS_P1;SDS_P2;PMS_P1;PMS_P2;Temp;Humidity;BMP_temperature;BMP_pressure;BME280_temperature;BME280_humidity;BME280_pressure;Samples;Min_cycle;Max_cycle;Signal;HPM_P1;HPM_P2
2021/04/24 00:00:23;;;;;;;9.67;4.73;;;;;;;;;;4993905;28;20447;-63
2021/04/24 00:02:50;;;;;;;8.87;4.20;;;;;;;;;;4994473;28;20533;-63
2021/04/24 00:05:19;;;;;;;10.07;3.97;;;;;;;;;;4994260;28;20482;-64
2021/04/24 00:07:45;;;;;;;11.23;4.30;;;;;;;;;;4993192;28;20461;-63
2021/04/24 00:10:13;;;;;;;6.90;3.80;;;;;;;;;;4994011;28;20505;-64
2021/04/24 00:12:39;;;;;;;5.93;3.13;;;;;;;;;;4994045;28;20490;-63
2021/04/24 00:15:07;;;;;;;6.83;3.87;;;;;;;;;;4994297;28;20442;-64
2021/04/24 00:17:33;;;;;;;7.00;3.57;;;;;;;;;;4993317;28;20457;-63
2021/04/24 00:20:01;;;;;;;6.10;3.47;;;;;;;;;;4994512;28;20455;-64
2021/04/24 00:22:27;;;;;;;7.20;3.53;;;;;;;;;;4993941;28;20843;-63
2021/04/24 00:24:54;;;;;;;6.83;3.37;;;;;;;;;;4993252;28;20933;-63
2021/04/24 00:27:20;;;;;;;10.50;4.17;;;;;;;;;;4993542;28;20466;-64
2021/04/24 00:29:47;;;;;;;7.10;3.47;;;;;;;;;;4993706;28;20454;-64
2021/04/24 00:32:13;;;;;;;9.07;3.73;;;;;;;;;;4993676;28;20484;-63
2021/04/24 00:34:40;;;;;;;6.53;3.40;;;;;;;;;;4992911;28;20451;-64
2021/04/24 00:37:07;;;;;;;7.10;3.43;;;;;;;;;;4993762;28;20454;-64
2021/04/24 00:39:34;;;;;;;6.87;3.30;;;;;;;;;;4994140;28;20458;-63
2021/04/24 00:42:00;;;;;;;7.10;2.90;;;;;;;;;;4993675;28;20497;-63
2021/04/24 00:44:27;;;;;;;7.30;3.30;;;;;;;;;;4992840;28;20454;-63
2021/04/24 00:46:53;;;;;;;6.47;3.30;;;;;;;;;;4993602;28;20449;-64
2021/04/24 00:49:20;;;;;;;5.73;2.90;;;;;;;;;;4993164;28;20543;-62
2021/04/24 00:51:46;;;;;;;7.63;3.20;;;;;;;;;;4992830;28;20486;-62
2021/04/24 00:54:13;;;;;;;5.90;3.17;;;;;;;;;;4992651;28;20496;-63
2021/04/24 00:56:40;;;;;;;5.60;2.57;;;;;;;;;;4993547;28;20848;-62
2021/04/24 00:59:07;;;;;;;6.50;3.60;;;;;;;;;;4993280;28;20448;-63
2021/04/24 01:01:34;;;;;;;10.67;2.80;;;;;;;;;;4992179;28;20480;-63
2021/04/24 01:04:00;;;;;;;7.43;3.07;;;;;;;;;;4993250;28;20466;-62
2021/04/24 01:06:27;;;;;;;6.57;3.80;;;;;;;;;;4992898;28;20453;-63
2021/04/24 01:08:53;;;;;;;4.73;2.80;;;;;;;;;;4993346;28;20447;-63
2021/04/24 01:11:21;;;;;;;9.87;3.20;;;;;;;;;;4992425;28;20893;-63
2021/04/24 01:13:47;;;;;;;7.37;2.83;;;;;;;;;;4992449;28;20493;-64
2021/04/24 01:16:14;;;;;;;5.57;3.30;;;;;;;;;;4993099;28;20459;-63
2021/04/24 01:18:40;;;;;;;6.20;3.20;;;;;;;;;;4992624;28;20456;-64
2021/04/24 01:21:07;;;;;;;7.73;3.60;;;;;;;;;;4991899;28;20479;-63
2021/04/24 01:23:35;;;;;;;7.70;3.37;;;;;;;;;;4993031;28;20455;-64
2021/04/24 01:26:02;;;;;;;6.87;2.97;;;;;;;;;;4992982;28;20462;-64
2021/04/24 01:28:28;;;;;;;7.43;3.40;;;;;;;;;;4992145;28;20462;-64
2021/04/24 01:30:55;;;;;;;12.17;3.40;;;;;;;;;;4992498;28;20471;-63
2021/04/24 01:33:22;;;;;;;8.13;3.10;;;;;;;;;;4992759;28;20486;-64
2021/04/24 01:35:49;;;;;;;6.53;2.87;;;;;;;;;;4992835;28;20464;-63
2021/04/24 01:38:16;;;;;;;8.33;3.53;;;;;;;;;;4992069;28;20450;-64
2021/04/24 01:40:44;;;;;;;5.63;2.80;;;;;;;;;;4992650;28;21064;-64
2021/04/24 01:43:11;;;;;;;5.67;3.17;;;;;;;;;;4992560;28;20448;-64
2021/04/24 01:45:38;;;;;;;4.97;2.90;;;;;;;;;;4992539;28;20460;-63
2021/04/24 01:48:06;;;;;;;9.50;3.77;;;;;;;;;;4991634;28;20886;-64
2021/04/24 01:50:34;;;;;;;7.40;3.27;;;;;;;;;;4992202;28;20552;-64
2021/04/24 01:53:01;;;;;;;6.40;3.27;;;;;;;;;;4992636;28;20488;-64
2021/04/24 01:55:29;;;;;;;5.70;3.10;;;;;;;;;;4991646;28;20475;-64
2021/04/24 01:57:57;;;;;;;7.10;3.03;;;;;;;;;;4992400;28;21145;-65
2021/04/24 02:00:24;;;;;;;6.10;3.27;;;;;;;;;;4992156;28;20451;-63
2021/04/24 02:02:51;;;;;;;6.43;2.90;;;;;;;;;;4992508;28;20849;-64
2021/04/24 02:05:18;;;;;;;7.77;3.23;;;;;;;;;;4991943;28;20460;-62
2021/04/24 02:07:53;;;;;;;6.67;2.83;;;;;;;;;;4992110;28;20458;-63
2021/04/24 02:10:19;;;;;;;7.77;2.93;;;;;;;;;;4992362;28;20457;-64
2021/04/24 02:12:46;;;;;;;8.80;3.23;;;;;;;;;;4994117;28;20485;-63
2021/04/24 02:15:13;;;;;;;7.23;3.40;;;;;;;;;;4995371;28;20453;-64
2021/04/24 02:17:40;;;;;;;8.70;3.70;;;;;;;;;;4996481;28;20464;-63
2021/04/24 02:20:07;;;;;;;7.37;3.23;;;;;;;;;;4996282;28;20473;-63
2021/04/24 02:22:34;;;;;;;6.13;3.60;;;;;;;;;;4995542;28;20468;-63
2021/04/24 02:25:02;;;;;;;6.07;2.77;;;;;;;;;;4996154;28;20461;-62
2021/04/24 02:27:29;;;;;;;5.73;2.87;;;;;;;;;;4995466;28;20452;-63
2021/04/24 02:29:56;;;;;;;5.67;3.20;;;;;;;;;;4995744;28;20471;-63
2021/04/24 02:32:25;;;;;;;7.57;3.67;;;;;;;;;;4995993;28;20589;-64
2021/04/24 02:34:52;;;;;;;7.87;3.50;;;;;;;;;;4996095;28;20498;-63
2021/04/24 02:37:19;;;;;;;6.60;3.57;;;;;;;;;;4995359;28;20453;-62
2021/04/24 02:39:46;;;;;;;7.53;3.23;;;;;;;;;;4995798;28;20453;-64
2021/04/24 02:42:14;;;;;;;7.67;3.83;;;;;;;;;;4995705;28;20476;-63
2021/04/24 02:44:41;;;;;;;6.63;4.03;;;;;;;;;;4995981;28;20445;-63
2021/04/24 02:47:08;;;;;;;7.10;3.80;;;;;;;;;;4995029;28;20457;-63
2021/04/24 02:49:36;;;;;;;12.00;3.93;;;;;;;;;;4994212;28;20467;-63
2021/04/24 02:52:03;;;;;;;8.00;4.27;;;;;;;;;;4994995;28;20538;-63
2021/04/24 02:54:30;;;;;;;6.30;3.70;;;;;;;;;;4994735;28;20495;-63
2021/04/24 02:56:57;;;;;;;10.47;4.50;;;;;;;;;;4995349;28;20465;-63
2021/04/24 02:59:23;;;;;;;7.23;3.20;;;;;;;;;;4995626;28;20858;-63
2021/04/24 03:01:50;;;;;;;6.43;3.53;;;;;;;;;;4995193;28;20466;-64
2021/04/24 03:04:17;;;;;;;7.63;3.93;;;;;;;;;;4994784;28;20460;-63
2021/04/24 03:06:45;;;;;;;7.37;3.53;;;;;;;;;;4995194;28;20467;-63
2021/04/24 03:09:12;;;;;;;6.97;3.63;;;;;;;;;;4995207;28;20451;-63
2021/04/24 03:11:39;;;;;;;5.47;3.60;;;;;;;;;;4994545;28;21010;-63
2021/04/24 03:14:06;;;;;;;7.73;4.30;;;;;;;;;;4994679;28;20495;-63
2021/04/24 03:16:33;;;;;;;10.27;4.47;;;;;;;;;;4995145;28;20449;-63
2021/04/24 03:19:00;;;;;;;7.80;3.73;;;;;;;;;;4994971;28;20451;-62
2021/04/24 03:21:27;;;;;;;10.80;4.07;;;;;;;;;;4994676;28;20477;-63
2021/04/24 03:23:54;;;;;;;9.10;3.93;;;;;;;;;;4993756;28;20455;-63
2021/04/24 03:26:22;;;;;;;10.10;4.53;;;;;;;;;;4994837;28;20455;-64
2021/04/24 03:28:48;;;;;;;10.80;4.30;;;;;;;;;;4994773;28;20862;-63
2021/04/24 03:31:15;;;;;;;8.50;4.23;;;;;;;;;;4994171;28;20489;-63
2021/04/24 03:33:42;;;;;;;6.90;4.10;;;;;;;;;;4993853;28;21069;-62
2021/04/24 03:36:08;;;;;;;8.30;4.50;;;;;;;;;;4994713;28;20448;-63
2021/04/24 03:38:36;;;;;;;10.13;4.53;;;;;;;;;;4994568;28;20460;-63
2021/04/24 03:41:03;;;;;;;9.63;4.37;;;;;;;;;;4994044;28;20472;-62
2021/04/24 03:43:30;;;;;;;11.30;5.30;;;;;;;;;;4994985;28;20444;-62
2021/04/24 03:45:57;;;;;;;9.73;4.53;;;;;;;;;;4995170;28;20822;-63
2021/04/24 03:48:23;;;;;;;10.73;4.60;;;;;;;;;;4993832;28;21166;-62
2021/04/24 03:50:50;;;;;;;10.23;4.87;;;;;;;;;;4994144;28;20487;-62
2021/04/24 03:53:17;;;;;;;14.97;4.90;;;;;;;;;;4994343;28;21031;-62
2021/04/24 03:55:43;;;;;;;10.33;4.57;;;;;;;;;;4994552;28;20451;-63
2021/04/24 03:58:10;;;;;;;10.73;5.03;;;;;;;;;;4994083;28;20454;-62
2021/04/24 04:00:37;;;;;;;10.87;4.87;;;;;;;;;;4993788;28;20472;-63
2021/04/24 04:03:05;;;;;;;7.60;4.20;;;;;;;;;;4994503;28;20453;-63
2021/04/24 04:05:32;;;;;;;11.03;4.67;;;;;;;;;;4994114;28;20450;-62
2021/04/24 04:07:59;;;;;;;8.77;4.90;;;;;;;;;;4993594;28;20459;-63
2021/04/24 04:10:26;;;;;;;7.80;4.03;;;;;;;;;;4993916;28;20447;-63
2021/04/24 04:12:54;;;;;;;9.20;4.53;;;;;;;;;;4994033;28;20497;-62
2021/04/24 04:15:22;;;;;;;12.53;5.00;;;;;;;;;;4994124;28;20451;-63
2021/04/24 04:17:51;;;;;;;8.90;4.80;;;;;;;;;;4993970;28;20482;-63
2021/04/24 04:20:17;;;;;;;11.67;5.47;;;;;;;;;;4993652;28;20461;-62
2021/04/24 04:22:44;;;;;;;11.43;5.57;;;;;;;;;;4994202;28;20458;-63
2021/04/24 04:25:11;;;;;;;10.17;5.23;;;;;;;;;;4992937;28;20865;-63
2021/04/24 04:27:38;;;;;;;12.30;5.50;;;;;;;;;;4993573;28;20947;-63
2021/04/24 04:30:05;;;;;;;10.90;5.60;;;;;;;;;;4993397;28;20939;-63
2021/04/24 04:32:32;;;;;;;11.33;6.03;;;;;;;;;;4993441;28;20471;-63
2021/04/24 04:34:59;;;;;;;10.53;5.33;;;;;;;;;;4993170;28;20459;-63
2021/04/24 04:37:26;;;;;;;12.17;5.67;;;;;;;;;;4992970;28;21041;-62
2021/04/24 04:39:52;;;;;;;12.73;6.00;;;;;;;;;;4993657;28;20845;-63
2021/04/24 04:42:19;;;;;;;9.43;6.03;;;;;;;;;;4993405;28;20495;-63
2021/04/24 04:44:46;;;;;;;9.93;5.37;;;;;;;;;;4993533;28;20451;-63
2021/04/24 04:47:12;;;;;;;13.53;5.73;;;;;;;;;;4993344;28;20455;-63
2021/04/24 04:49:39;;;;;;;12.23;5.87;;;;;;;;;;4993558;28;20458;-63
2021/04/24 04:52:06;;;;;;;12.13;5.90;;;;;;;;;;4993359;28;20851;-63
2021/04/24 04:54:33;;;;;;;14.20;5.70;;;;;;;;;;4993234;28;20482;-63
2021/04/24 04:56:59;;;;;;;11.33;6.20;;;;;;;;;;4993968;28;20452;-64
2021/04/24 04:59:28;;;;;;;15.03;6.17;;;;;;;;;;4993072;28;20510;-64
2021/04/24 05:01:55;;;;;;;11.10;6.30;;;;;;;;;;4991963;28;20492;-63
2021/04/24 05:04:21;;;;;;;11.57;5.90;;;;;;;;;;4993404;28;20825;-63
2021/04/24 05:06:49;;;;;;;12.07;6.00;;;;;;;;;;4993167;28;20458;-64
2021/04/24 05:09:16;;;;;;;10.30;5.30;;;;;;;;;;4993241;28;20456;-64
2021/04/24 05:11:43;;;;;;;12.13;6.00;;;;;;;;;;4992359;28;20578;-64
2021/04/24 05:14:09;;;;;;;15.40;6.13;;;;;;;;;;4992114;28;20599;-63
2021/04/24 05:16:36;;;;;;;14.57;5.93;;;;;;;;;;4993041;28;20503;-63
2021/04/24 05:19:02;;;;;;;12.77;5.77;;;;;;;;;;4992799;28;21070;-62
2021/04/24 05:21:29;;;;;;;12.47;6.57;;;;;;;;;;4992112;28;20839;-63
2021/04/24 05:23:56;;;;;;;12.87;7.30;;;;;;;;;;4992426;28;20436;-63
2021/04/24 05:26:23;;;;;;;12.20;5.77;;;;;;;;;;4992864;28;20466;-62
2021/04/24 05:28:49;;;;;;;12.37;6.10;;;;;;;;;;4992485;28;20554;-63
2021/04/24 05:31:16;;;;;;;16.77;6.23;;;;;;;;;;4992221;28;20476;-63
2021/04/24 05:33:42;;;;;;;13.13;5.93;;;;;;;;;;4991925;28;20476;-63
2021/04/24 05:36:11;;;;;;;11.20;5.70;;;;;;;;;;4991777;28;20451;-63
2021/04/24 05:38:38;;;;;;;11.63;6.37;;;;;;;;;;4991976;28;20456;-61
2021/04/24 05:41:06;;;;;;;18.53;6.40;;;;;;;;;;4992412;28;20511;-64
2021/04/24 05:43:32;;;;;;;17.07;5.87;;;;;;;;;;4992276;28;20446;-63
2021/04/24 05:45:59;;;;;;;16.27;6.57;;;;;;;;;;4992702;28;20452;-62
2021/04/24 05:48:25;;;;;;;10.90;6.53;;;;;;;;;;4992482;28;20843;-63
2021/04/24 05:50:52;;;;;;;16.43;7.93;;;;;;;;;;4992073;28;20556;-64
2021/04/24 05:53:18;;;;;;;16.37;6.53;;;;;;;;;;4991492;28;20483;-63
2021/04/24 05:55:45;;;;;;;15.37;6.70;;;;;;;;;;4992432;28;20454;-64
2021/04/24 05:58:12;;;;;;;15.73;6.30;;;;;;;;;;4992305;28;20456;-61
2021/04/24 06:00:39;;;;;;;12.67;5.97;;;;;;;;;;4992272;28;20495;-62
2021/04/24 06:03:05;;;;;;;17.97;6.27;;;;;;;;;;4992671;28;21056;-63
2021/04/24 06:05:32;;;;;;;14.63;6.40;;;;;;;;;;4992668;28;20458;-64
2021/04/24 06:07:59;;;;;;;15.20;6.80;;;;;;;;;;4992576;28;20455;-64
2021/04/24 06:10:25;;;;;;;21.07;7.53;;;;;;;;;;4992161;28;20458;-63
2021/04/24 06:12:52;;;;;;;12.67;6.67;;;;;;;;;;4991167;28;20529;-62
2021/04/24 06:15:20;;;;;;;12.67;5.97;;;;;;;;;;4992382;28;20459;-62
2021/04/24 06:17:47;;;;;;;15.33;6.87;;;;;;;;;;4992260;28;20517;-63
2021/04/24 06:20:14;;;;;;;16.00;6.83;;;;;;;;;;4992091;28;20962;-63
2021/04/24 06:22:41;;;;;;;16.77;7.37;;;;;;;;;;4991445;28;20471;-63
2021/04/24 06:25:08;;;;;;;13.70;6.97;;;;;;;;;;4991752;28;20530;-63
2021/04/24 06:27:35;;;;;;;14.60;6.83;;;;;;;;;;4992431;28;20470;-63
2021/04/24 06:30:02;;;;;;;15.83;7.23;;;;;;;;;;4991695;28;20463;-63
2021/04/24 06:32:29;;;;;;;12.03;7.57;;;;;;;;;;4992086;28;20471;-62
2021/04/24 06:34:56;;;;;;;14.50;7.27;;;;;;;;;;4991428;28;20487;-62
2021/04/24 06:37:22;;;;;;;11.63;7.23;;;;;;;;;;4992107;28;20454;-62
2021/04/24 06:39:49;;;;;;;16.57;7.37;;;;;;;;;;4991292;28;20450;-62
2021/04/24 06:42:15;;;;;;;13.67;7.27;;;;;;;;;;4992083;28;20481;-63
2021/04/24 06:44:42;;;;;;;14.80;7.77;;;;;;;;;;4992521;28;20939;-63
2021/04/24 06:47:09;;;;;;;13.70;7.77;;;;;;;;;;4992174;28;20956;-63
2021/04/24 06:49:36;;;;;;;14.73;8.10;;;;;;;;;;4991169;28;20450;-60
2021/04/24 06:52:03;;;;;;;12.83;6.90;;;;;;;;;;4991845;28;20482;-61
2021/04/24 06:54:29;;;;;;;12.13;6.67;;;;;;;;;;4991707;28;20487;-62
2021/04/24 06:56:56;;;;;;;13.80;7.40;;;;;;;;;;4992163;28;20822;-63
2021/04/24 06:59:22;;;;;;;13.33;7.17;;;;;;;;;;4993285;28;20453;-62
2021/04/24 07:01:49;;;;;;;17.33;7.77;;;;;;;;;;4994699;28;20475;-62
2021/04/24 07:04:15;;;;;;;12.83;7.23;;;;;;;;;;4995525;28;20820;-62
2021/04/24 07:06:43;;;;;;;17.37;6.93;;;;;;;;;;4995006;28;20462;-62
2021/04/24 07:09:09;;;;;;;17.93;7.53;;;;;;;;;;4995623;28;20447;-62
2021/04/24 07:11:36;;;;;;;12.70;7.80;;;;;;;;;;4994803;28;20474;-63
2021/04/24 07:14:02;;;;;;;11.03;6.70;;;;;;;;;;4995194;28;20510;-63
2021/04/24 07:16:29;;;;;;;14.47;7.07;;;;;;;;;;4995226;28;20455;-63
2021/04/24 07:18:55;;;;;;;16.17;7.57;;;;;;;;;;4995343;28;20455;-62
2021/04/24 07:21:22;;;;;;;16.03;7.80;;;;;;;;;;4994369;28;20474;-62
2021/04/24 07:23:49;;;;;;;13.90;8.30;;;;;;;;;;5000929;28;20476;-63
2021/04/24 07:26:16;;;;;;;12.73;7.77;;;;;;;;;;5005764;28;20484;-62
2021/04/24 07:28:43;;;;;;;11.50;6.60;;;;;;;;;;4985596;28;20609;-62
2021/04/24 07:31:10;;;;;;;12.30;7.07;;;;;;;;;;5005966;28;20541;-62
2021/04/24 07:33:36;;;;;;;13.37;6.10;;;;;;;;;;5014076;28;20478;-63
2021/04/24 07:36:03;;;;;;;9.63;6.50;;;;;;;;;;5013532;28;20457;-63
2021/04/24 07:38:29;;;;;;;9.13;6.07;;;;;;;;;;5013991;28;20457;-63
2021/04/24 07:40:57;;;;;;;10.67;6.20;;;;;;;;;;5013836;28;20834;-62
2021/04/24 07:43:23;;;;;;;9.07;6.73;;;;;;;;;;5013741;28;20454;-63
2021/04/24 07:45:50;;;;;;;18.50;6.10;;;;;;;;;;5014110;28;20453;-64
2021/04/24 07:48:17;;;;;;;8.03;5.80;;;;;;;;;;5013926;28;20453;-65
2021/04/24 07:50:43;;;;;;;7.53;5.90;;;;;;;;;;5013024;28;20477;-65
2021/04/24 07:53:10;;;;;;;10.37;6.30;;;;;;;;;;5013160;28;20235;-66
2021/04/24 07:55:36;;;;;;;10.67;6.30;;;;;;;;;;5013233;28;20879;-64
2021/04/24 07:58:04;;;;;;;10.00;5.67;;;;;;;;;;5013653;28;20500;-64
2021/04/24 08:00:30;;;;;;;10.23;6.70;;;;;;;;;;5013475;28;20894;-64
2021/04/24 08:02:58;;;;;;;8.87;5.83;;;;;;;;;;5013587;28;20261;-64
2021/04/24 08:05:24;;;;;;;11.83;7.47;;;;;;;;;;5013830;28;20222;-63
2021/04/24 08:07:51;;;;;;;12.60;7.80;;;;;;;;;;5013577;28;20216;-64
2021/04/24 08:10:17;;;;;;;14.90;8.37;;;;;;;;;;5013398;28;20584;-64
2021/04/24 08:12:46;;;;;;;14.37;9.70;;;;;;;;;;5013411;28;20267;-64
2021/04/24 08:15:14;;;;;;;15.53;10.00;;;;;;;;;;5013225;28;20302;-63
2021/04/24 08:17:41;;;;;;;17.67;12.50;;;;;;;;;;5012938;28;20294;-65
2021/04/24 08:20:08;;;;;;;23.97;16.83;;;;;;;;;;5012838;28;20205;-65
2021/04/24 08:22:34;;;;;;;23.37;18.17;;;;;;;;;;5013209;28;20319;-65
2021/04/24 08:25:01;;;;;;;18.63;14.77;;;;;;;;;;5013164;28;20259;-65
2021/04/24 08:27:27;;;;;;;20.67;15.27;;;;;;;;;;5012627;28;20214;-65
2021/04/24 08:29:54;;;;;;;21.77;13.97;;;;;;;;;;5012724;28;20212;-65
2021/04/24 08:32:21;;;;;;;17.90;14.20;;;;;;;;;;5012602;28;20238;-65
2021/04/24 08:34:48;;;;;;;17.40;13.83;;;;;;;;;;5012812;28;20235;-64
2021/04/24 08:37:15;;;;;;;17.73;13.07;;;;;;;;;;5012698;28;20700;-65
2021/04/24 08:39:41;;;;;;;24.43;15.27;;;;;;;;;;5012937;28;20776;-64
2021/04/24 08:42:08;;;;;;;19.97;14.43;;;;;;;;;;5012974;28;20656;-64
2021/04/24 08:44:34;;;;;;;17.00;13.20;;;;;;;;;;5012751;28;20212;-64
2021/04/24 08:47:01;;;;;;;17.17;11.93;;;;;;;;;;5013193;28;20289;-63
2021/04/24 08:49:28;;;;;;;16.17;8.03;;;;;;;;;;5013129;28;20575;-63
2021/04/24 08:51:55;;;;;;;11.93;7.53;;;;;;;;;;5012600;28;20277;-63
2021/04/24 08:54:23;;;;;;;12.40;7.87;;;;;;;;;;5012758;28;20231;-63
2021/04/24 08:56:50;;;;;;;14.90;8.13;;;;;;;;;;5012383;28;20232;-69
2021/04/24 08:59:16;;;;;;;14.83;7.53;;;;;;;;;;5012744;28;20294;-67
2021/04/24 09:01:43;;;;;;;12.30;8.10;;;;;;;;;;5012768;28;20258;-64
2021/04/24 09:04:09;;;;;;;12.07;9.73;;;;;;;;;;5012731;28;20206;-64
2021/04/24 09:06:37;;;;;;;12.63;8.53;;;;;;;;;;5012534;28;20214;-63
2021/04/24 09:09:05;;;;;;;12.60;9.40;;;;;;;;;;5012662;28;20207;-63
2021/04/24 09:11:38;;;;;;;12.57;9.40;;;;;;;;;;5012611;28;20230;-66
2021/04/24 09:14:06;;;;;;;12.47;9.87;;;;;;;;;;5013011;28;20237;-65
2021/04/24 09:16:33;;;;;;;15.70;9.17;;;;;;;;;;5012233;28;20207;-66
2021/04/24 09:18:59;;;;;;;16.40;9.53;;;;;;;;;;5012691;28;20214;-64
2021/04/24 09:21:27;;;;;;;15.80;11.27;;;;;;;;;;5012031;28;20290;-65
2021/04/24 09:23:55;;;;;;;15.23;10.37;;;;;;;;;;5012317;28;20199;-65
2021/04/24 09:26:22;;;;;;;15.27;10.10;;;;;;;;;;5011743;28;20728;-64
2021/04/24 09:28:51;;;;;;;16.63;13.03;;;;;;;;;;5012308;28;20215;-65
2021/04/24 09:31:18;;;;;;;14.53;12.50;;;;;;;;;;5012096;28;20598;-64
2021/04/24 09:33:45;;;;;;;13.47;10.87;;;;;;;;;;5011988;28;20734;-63
2021/04/24 09:36:12;;;;;;;14.17;9.90;;;;;;;;;;5012175;28;20215;-63
2021/04/24 09:38:40;;;;;;;9.07;6.80;;;;;;;;;;5012510;28;20207;-63
2021/04/24 09:41:09;;;;;;;11.10;8.47;;;;;;;;;;5011539;28;20645;-64
2021/04/24 09:43:56;;;;;;;11.00;7.57;;;;;;;;;;5012167;28;20559;-64
2021/04/24 09:46:22;;;;;;;9.23;7.07;;;;;;;;;;5011793;28;20210;-65
2021/04/24 09:48:49;;;;;;;9.07;6.80;;;;;;;;;;5012130;28;20552;-65
2021/04/24 09:51:16;;;;;;;8.30;6.77;;;;;;;;;;5011567;28;20641;-65
2021/04/24 09:53:53;;;;;;;10.30;6.33;;;;;;;;;;5012192;28;20235;-66
2021/04/24 09:56:20;;;;;;;6.60;4.60;;;;;;;;;;5011805;28;20269;-66
2021/04/24 09:58:47;;;;;;;5.57;4.30;;;;;;;;;;5011806;28;20207;-65
2021/04/24 10:01:21;;;;;;;7.60;5.10;;;;;;;;;;5011736;28;20238;-64
2021/04/24 10:03:49;;;;;;;7.07;4.50;;;;;;;;;;5011553;28;20203;-64
2021/04/24 10:06:29;;;;;;;6.17;3.30;;;;;;;;;;5011931;28;20940;-64
2021/04/24 10:09:10;;;;;;;5.20;3.10;;;;;;;;;;5012349;28;20206;-63
2021/04/24 10:11:37;;;;;;;5.40;2.97;;;;;;;;;;5011640;28;20227;-65
2021/04/24 10:14:04;;;;;;;5.23;2.93;;;;;;;;;;5011684;28;20277;-64
2021/04/24 10:16:35;;;;;;;4.10;2.90;;;;;;;;;;5009130;28;20203;-64
2021/04/24 10:19:02;;;;;;;8.50;2.87;;;;;;;;;;4992121;28;20568;-70
2021/04/24 10:21:30;;;;;;;5.73;2.87;;;;;;;;;;4991748;28;20731;-65
2021/04/24 10:23:57;;;;;;;3.70;3.30;;;;;;;;;;4992189;28;20694;-67
2021/04/24 10:26:24;;;;;;;5.43;3.37;;;;;;;;;;4991612;28;20204;-69
2021/04/24 10:28:53;;;;;;;7.07;3.70;;;;;;;;;;4991633;28;20230;-69
2021/04/24 10:31:19;;;;;;;5.37;3.53;;;;;;;;;;4991340;28;20270;-64
2021/04/24 10:33:46;;;;;;;5.70;3.83;;;;;;;;;;4993880;28;20228;-66
2021/04/24 10:36:13;;;;;;;6.63;3.70;;;;;;;;;;4995567;28;20212;-66
2021/04/24 10:38:42;;;;;;;5.07;3.17;;;;;;;;;;4996011;28;20587;-62
2021/04/24 10:41:10;;;;;;;5.73;3.60;;;;;;;;;;4995416;28;20724;-62
2021/04/24 10:43:37;;;;;;;5.90;3.10;;;;;;;;;;4995602;28;20223;-62
2021/04/24 10:46:18;;;;;;;6.23;3.33;;;;;;;;;;4995392;28;20263;-62
2021/04/24 10:48:46;;;;;;;2.13;1.87;;;;;;;;;;4995213;28;20692;-62
2021/04/24 10:51:12;;;;;;;5.57;3.00;;;;;;;;;;4995289;28;20231;-63
2021/04/24 10:53:39;;;;;;;6.50;2.60;;;;;;;;;;4995290;28;20227;-63
2021/04/24 10:56:05;;;;;;;5.37;3.07;;;;;;;;;;4994990;28;20212;-63
2021/04/24 10:58:32;;;;;;;7.10;3.27;;;;;;;;;;4995674;28;20222;-63
2021/04/24 11:00:59;;;;;;;8.13;3.63;;;;;;;;;;4995179;28;20229;-62
2021/04/24 11:03:41;;;;;;;7.30;4.10;;;;;;;;;;4995345;28;20212;-62
2021/04/24 11:06:09;;;;;;;10.90;3.20;;;;;;;;;;4995103;28;20221;-60
2021/04/24 11:08:36;;;;;;;6.63;4.10;;;;;;;;;;4995082;28;20262;-60
2021/04/24 11:11:04;;;;;;;6.10;3.60;;;;;;;;;;4996207;28;20229;-65
2021/04/24 11:13:32;;;;;;;6.07;3.83;;;;;;;;;;4995310;28;20232;-65
2021/04/24 11:15:59;;;;;;;7.17;3.83;;;;;;;;;;4995201;28;20298;-65
2021/04/24 11:18:25;;;;;;;4.83;3.57;;;;;;;;;;4994954;28;20216;-65
2021/04/24 11:20:54;;;;;;;9.37;4.07;;;;;;;;;;4995043;28;20223;-63
2021/04/24 11:23:42;;;;;;;7.00;4.20;;;;;;;;;;4995094;28;20209;-58
2021/04/24 11:26:09;;;;;;;6.97;4.90;;;;;;;;;;4994846;28;20628;-60
2021/04/24 11:28:50;;;;;;;7.77;4.70;;;;;;;;;;4993774;28;20691;-63
2021/04/24 11:31:17;;;;;;;10.57;5.20;;;;;;;;;;4994349;28;20225;-62
2021/04/24 11:33:45;;;;;;;6.73;4.63;;;;;;;;;;4994604;28;20883;-63
2021/04/24 11:36:20;;;;;;;6.80;4.50;;;;;;;;;;4994755;28;20208;-63
2021/04/24 11:39:05;;;;;;;7.07;4.63;;;;;;;;;;4994817;28;20290;-65
2021/04/24 11:41:33;;;;;;;7.37;4.50;;;;;;;;;;4993752;28;20606;-63
2021/04/24 11:44:00;;;;;;;6.43;4.07;;;;;;;;;;4994217;28;20671;-65
2021/04/24 11:46:33;;;;;;;7.80;4.40;;;;;;;;;;4993668;28;20205;-65
2021/04/24 11:49:02;;;;;;;5.73;4.13;;;;;;;;;;4994495;28;20630;-64
2021/04/24 11:51:32;;;;;;;7.40;4.57;;;;;;;;;;4994010;28;20775;-64
2021/04/24 11:53:59;;;;;;;8.10;5.10;;;;;;;;;;4994049;28;20241;-64
2021/04/24 11:56:26;;;;;;;6.93;4.47;;;;;;;;;;4994315;28;20342;-63
2021/04/24 11:58:53;;;;;;;9.63;4.90;;;;;;;;;;4994233;28;20669;-62
2021/04/24 12:01:23;;;;;;;9.07;4.73;;;;;;;;;;4993995;28;20576;-62
2021/04/24 12:03:49;;;;;;;6.53;4.50;;;;;;;;;;4993936;28;20212;-62
2021/04/24 12:06:31;;;;;;;8.40;4.30;;;;;;;;;;4993623;28;20211;-63
2021/04/24 12:08:59;;;;;;;7.33;4.47;;;;;;;;;;4993881;28;20218;-63
2021/04/24 12:11:26;;;;;;;6.00;4.33;;;;;;;;;;4993563;28;20736;-67
2021/04/24 12:13:53;;;;;;;10.93;5.30;;;;;;;;;;4994100;28;20595;-69
2021/04/24 12:16:19;;;;;;;8.50;4.77;;;;;;;;;;4993792;28;20207;-70
2021/04/24 12:18:46;;;;;;;6.63;4.77;;;;;;;;;;4993742;28;20214;-65
2021/04/24 12:21:13;;;;;;;7.43;4.43;;;;;;;;;;4993447;28;20236;-64
2021/04/24 12:23:39;;;;;;;5.47;3.97;;;;;;;;;;4993682;28;20234;-64
2021/04/24 12:26:06;;;;;;;4.97;3.90;;;;;;;;;;4993301;28;20214;-64
2021/04/24 12:28:32;;;;;;;7.10;4.20;;;;;;;;;;4993762;28;20212;-65
2021/04/24 12:31:00;;;;;;;5.97;3.93;;;;;;;;;;4993481;28;20230;-63
2021/04/24 12:33:29;;;;;;;6.53;4.30;;;;;;;;;;4993552;28;20207;-64
2021/04/24 12:35:56;;;;;;;6.47;4.67;;;;;;;;;;4993142;28;20211;-64
2021/04/24 12:38:24;;;;;;;6.03;4.43;;;;;;;;;;4993548;28;20302;-64
2021/04/24 12:40:51;;;;;;;5.03;4.00;;;;;;;;;;4993444;28;20254;-64
2021/04/24 12:43:21;;;;;;;6.67;4.13;;;;;;;;;;4993324;28;20212;-69
2021/04/24 12:45:48;;;;;;;7.40;4.80;;;;;;;;;;4993868;28;20269;-68
2021/04/24 12:48:18;;;;;;;7.70;4.20;;;;;;;;;;4993138;28;20234;-72
2021/04/24 12:50:46;;;;;;;44.93;24.43;;;;;;;;;;4993165;28;20696;-69
2021/04/24 12:53:13;;;;;;;7.13;4.60;;;;;;;;;;4993606;28;20671;-67
2021/04/24 12:55:42;;;;;;;7.07;4.43;;;;;;;;;;4993091;28;20286;-65
2021/04/24 12:58:09;;;;;;;8.90;4.47;;;;;;;;;;4994413;28;20208;-66
2021/04/24 13:00:38;;;;;;;8.97;5.93;;;;;;;;;;4998583;28;20211;-65
2021/04/24 13:03:20;;;;;;;6.30;4.57;;;;;;;;;;4994532;28;20305;-66
2021/04/24 13:05:47;;;;;;;8.67;4.53;;;;;;;;;;4990608;28;20232;-66
2021/04/24 13:08:14;;;;;;;7.83;5.03;;;;;;;;;;4992767;28;20591;-62
2021/04/24 13:10:41;;;;;;;10.27;5.57;;;;;;;;;;4992692;28;20363;-65
2021/04/24 13:13:08;;;;;;;7.37;4.77;;;;;;;;;;4992819;28;20211;-67
2021/04/24 13:15:39;;;;;;;6.63;5.07;;;;;;;;;;4992487;28;20258;-68
2021/04/24 13:18:19;;;;;;;7.47;4.63;;;;;;;;;;4993014;28;20590;-70
2021/04/24 13:20:46;;;;;;;9.03;5.67;;;;;;;;;;4992363;28;20234;-67
2021/04/24 13:23:14;;;;;;;7.87;5.10;;;;;;;;;;4992867;28;20211;-66
2021/04/24 13:25:41;;;;;;;8.70;6.20;;;;;;;;;;4992706;28;20207;-65
2021/04/24 13:28:07;;;;;;;9.67;6.57;;;;;;;;;;4992123;28;20257;-67
2021/04/24 13:30:40;;;;;;;8.43;5.47;;;;;;;;;;4992264;28;20207;-67
2021/04/24 13:33:07;;;;;;;11.07;6.10;;;;;;;;;;4992607;28;20222;-69
2021/04/24 13:35:39;;;;;;;56.93;32.13;;;;;;;;;;4992530;28;20234;-66
2021/04/24 13:38:07;;;;;;;9.80;6.43;;;;;;;;;;4992195;28;20219;-65
2021/04/24 13:40:34;;;;;;;9.93;5.90;;;;;;;;;;4992270;28;20591;-65
2021/04/24 13:43:01;;;;;;;7.23;5.43;;;;;;;;;;4992865;28;20203;-67
2021/04/24 13:45:28;;;;;;;8.77;5.13;;;;;;;;;;4992710;28;20211;-65
2021/04/24 13:48:02;;;;;;;6.80;5.13;;;;;;;;;;4992001;28;20222;-67
2021/04/24 13:50:30;;;;;;;8.37;5.47;;;;;;;;;;4991963;28;20250;-64
2021/04/24 13:52:57;;;;;;;9.83;5.60;;;;;;;;;;4992436;28;20592;-69
2021/04/24 13:55:23;;;;;;;8.23;5.53;;;;;;;;;;4992055;28;20231;-67
2021/04/24 13:58:01;;;;;;;8.73;5.60;;;;;;;;;;4992042;28;20215;-66
2021/04/24 14:00:27;;;;;;;9.13;5.63;;;;;;;;;;4992037;28;20210;-66
2021/04/24 14:02:54;;;;;;;11.87;6.80;;;;;;;;;;4991952;28;20788;-65
2021/04/24 14:05:20;;;;;;;9.13;6.00;;;;;;;;;;4992293;28;20215;-66
2021/04/24 14:07:47;;;;;;;8.40;5.17;;;;;;;;;;4991864;28;20207;-66
2021/04/24 14:10:13;;;;;;;8.50;5.90;;;;;;;;;;4996327;28;20215;-66
2021/04/24 14:12:40;;;;;;;8.90;5.97;;;;;;;;;;4996212;28;20290;-65
2021/04/24 14:15:08;;;;;;;7.67;5.83;;;;;;;;;;4996009;28;20640;-68
2021/04/24 14:17:35;;;;;;;9.40;6.23;;;;;;;;;;4995750;28;20214;-68
2021/04/24 14:20:01;;;;;;;7.97;6.33;;;;;;;;;;4995650;28;20596;-70
2021/04/24 14:22:28;;;;;;;9.47;6.10;;;;;;;;;;4995765;28;20249;-67
2021/04/24 14:24:54;;;;;;;8.63;5.93;;;;;;;;;;4995955;28;20265;-65
2021/04/24 14:27:21;;;;;;;10.93;6.03;;;;;;;;;;4995913;28;20204;-66
2021/04/24 14:29:47;;;;;;;12.57;7.20;;;;;;;;;;4995778;28;20235;-66
2021/04/24 14:32:15;;;;;;;10.03;6.33;;;;;;;;;;4995597;28;20606;-65
2021/04/24 14:34:41;;;;;;;7.83;6.30;;;;;;;;;;4995678;28;20662;-66
2021/04/24 14:37:08;;;;;;;10.67;6.50;;;;;;;;;;4995607;28;20215;-67